Ivano-Frankivs'K, Ukraine
Current Conditions -  °F | °C
As of 2:00 PM on Wednesday 26 Nov 2014 (Local Time) from UKLI Reporting Station
Overcast Overcast  
Wind Chill: 20°   Ceiling: 700
Heat Index: 28°   Visibility: 6mi
Dew Point: 27°   Wind: 9mph
Humidity: 93%   Direction: 100°E
Pressure: 30.3"   Gusts: NA
Location:  48.97°N, 24.4°E
Report Text: UKLI 261100Z 10004MPS 9999 OVC007 M02/M03 Q1026 NOSIG
Loading
Personal Weather Stations






























Interactive Weather Map New forecast layout! Learn more

10-Day Weather Forecast

Advertisements
Track Severe Weather on mobile